Hunzedijk — PCJB — position and weather

sailwx.info

Track history (hours):
 
Tides and Currents Weather Stations Pressure Air Temp Water Temp Dewpoint Dewpoint Depression Visibility Wind Speed Wind Dir Waves Ship Positions

Hunzedijk

Last reported at 2018-Feb-21 19:32 UTC. Time now 2018-Feb-22 19:18 UTC.
Position N 35°60' W 005°02'.

Length 90 m; draft 6.5 m.

Type: Cargo ship. MMSI: 246765000.

Date/timePositionNaut miles runAvg speedWind from/ knotsBaromVisibWave heightAir tempDewpointWater temp
2018-Feb-21 19:32N 35°60' W 005°02'1 9.9
2018-Feb-21 19:28N 35°60' W 005°03'813.1
2018-Feb-21 18:53N 35°59' W 005°13'512.8
2018-Feb-21 18:30N 35°58' W 005°18'612.9
2018-Feb-21 18:00N 35°57' W 005°26'21510.2
2018-Feb-20 20:55N 37°07' W 009°39'510.3
2018-Feb-20 20:27N 37°12' W 009°41'510.4
2018-Feb-20 19:57N 37°17' W 009°42'510.5
2018-Feb-20 19:26N 37°22' W 009°44'510.3
2018-Feb-20 18:59N 37°26' W 009°46'510.8
2018-Feb-20 18:30N 37°31' W 009°47'611.0
2018-Feb-20 18:00N 37°37' W 009°49'611.1
2018-Feb-20 17:30N 37°42' W 009°50'510.9
2018-Feb-20 17:00N 37°47' W 009°52'510.9
2018-Feb-20 16:30N 37°53' W 009°54'611.0
2018-Feb-20 16:00N 37°58' W 009°55'611.3
2018-Feb-20 15:30N 38°03' W 009°57'611.3
2018-Feb-20 15:00N 38°09' W 009°58'611.2
2018-Feb-20 14:30N 38°15' W 009°59'611.2
2018-Feb-20 14:00N 38°20' W 010°01'611.1
2018-Feb-20 13:30N 38°25' W 010°03'611.3
2018-Feb-20 13:01N 38°31' W 010°05'811.1
2018-Feb-20 12:20N 38°38' W 010°07'410.7
2018-Feb-20 12:00N 38°42' W 010°07'510.6
2018-Feb-20 11:30N 38°47' W 010°08'611.0
2018-Feb-20 10:59N 38°53' W 010°08'511.1
2018-Feb-20 10:31N 38°58' W 010°08'611.0
2018-Feb-20 10:00N 39°03' W 010°08'611.1
2018-Feb-20 09:29N 39°09' W 010°08'510.8
2018-Feb-20 09:00N 39°14' W 010°08'  
2018-Feb-17 06:40N 49°51' W 003°20'2 7.5
2018-Feb-17 06:25N 49°52' W 003°18'11 8.4
2018-Feb-17 05:09N 49°58' W 003°03'1 9.3
2018-Feb-17 04:59N 49°58' W 003°01'5 9.8
2018-Feb-17 04:31N 50°00' W 002°54'610.7
2018-Feb-17 03:58N 50°02' W 002°46'4312.3
2018-Feb-17 00:30N 50°14' W 001°42'54 8.1
2018-Feb-16 17:54N 50°28' W 000°21'711.1
2018-Feb-16 17:15N 50°30' W 000°10'311.4
2018-Feb-16 17:00N 50°31' W 000°06'612.1
2018-Feb-16 16:30N 50°33' E 000°04'611.6
2018-Feb-16 15:59N 50°34' E 000°13'611.4
2018-Feb-16 15:30N 50°36' E 000°21'611.2
2018-Feb-16 15:00N 50°37' E 000°30'510.7
2018-Feb-16 14:30N 50°39' E 000°38'510.3
2018-Feb-16 14:00N 50°42' E 000°44'5 9.9
2018-Feb-16 13:30N 50°45' E 000°50'5 9.3
2018-Feb-16 12:59N 50°48' E 000°56'14 8.5
2018-Feb-16 11:22N 50°57' E 001°13'3 8.4
2018-Feb-16 11:00N 50°59' E 001°17'5 8.9
2018-Feb-16 10:28N 51°02' E 001°23'510.3
2018-Feb-16 09:59N 51°05' E 001°29'611.8
2018-Feb-16 09:30N 51°09' E 001°36'611.9
2018-Feb-16 09:00N 51°15' E 001°37'612.3
2018-Feb-16 08:30N 51°21' E 001°35'510.4
2018-Feb-16 08:00N 51°24' E 001°30'2 3.2
2018-Feb-16 07:30N 51°25' E 001°27'0 0.1
2018-Feb-16 07:00N 51°25' E 001°28'0 0.0
2018-Feb-16 06:30N 51°25' E 001°28'0 0.0
2018-Feb-16 06:00N 51°25' E 001°28'0 0.0
2018-Feb-16 05:30N 51°25' E 001°28'0 0.0
2018-Feb-16 05:00N 51°25' E 001°28'1 2.5
2018-Feb-16 04:30N 51°26' E 001°29'611.1
2018-Feb-16 04:00N 51°28' E 001°21'613.0
2018-Feb-16 03:30N 51°29' E 001°11'612.5
2018-Feb-16 03:00N 51°29' E 001°01'612.7
2018-Feb-16 02:30N 51°29' E 000°51'612.4
2018-Feb-16 02:00N 51°30' E 000°41'611.5
2018-Feb-16 01:31N 51°30' E 000°32'5 9.5
2018-Feb-16 01:00N 51°27' E 000°26'4 7.6
2018-Feb-16 00:30N 51°28' E 000°20'0 0.2
2018-Feb-16 00:00N 51°28' E 000°20'0 0.0
2018-Feb-15 23:31N 51°28' E 000°20'0 0.0
2018-Feb-15 23:00N 51°28' E 000°20'0 0.0
2018-Feb-15 22:31N 51°28' E 000°20'0 0.0
2018-Feb-15 22:00N 51°28' E 000°20'0 0.0
2018-Feb-15 21:31N 51°28' E 000°20'0 0.0
2018-Feb-15 21:00N 51°28' E 000°20'0 0.0
2018-Feb-15 20:30N 51°28' E 000°20'0 0.0
2018-Feb-15 20:01N 51°28' E 000°20'0 0.0
2018-Feb-15 19:30N 51°28' E 000°20'0 0.0
2018-Feb-15 19:01N 51°28' E 000°20'0 0.0
2018-Feb-15 18:31N 51°28' E 000°20'0 0.0
2018-Feb-15 18:01N 51°28' E 000°20'0 0.0
2018-Feb-15 17:30N 51°28' E 000°20'0 0.0
2018-Feb-15 17:00N 51°28' E 000°20'0 0.0
2018-Feb-15 16:30N 51°28' E 000°20'0 0.0
2018-Feb-15 16:01N 51°28' E 000°20'0 0.0
2018-Feb-15 15:31N 51°28' E 000°20'0 0.0
2018-Feb-15 15:01N 51°28' E 000°20'0 0.0
2018-Feb-15 14:31N 51°28' E 000°20'0 0.0
2018-Feb-15 14:00N 51°28' E 000°20'0 0.0
2018-Feb-15 13:31N 51°28' E 000°20'0 0.0
2018-Feb-15 13:00N 51°28' E 000°20'0 0.0
2018-Feb-15 12:30N 51°28' E 000°20'0 0.0
2018-Feb-15 12:00N 51°28' E 000°20'0 0.0
2018-Feb-15 11:30N 51°28' E 000°20'0 0.0
2018-Feb-15 11:00N 51°28' E 000°20'0 0.0
2018-Feb-15 10:31N 51°28' E 000°20'0 0.1
2018-Feb-15 10:01N 51°28' E 000°20'0 0.1
2018-Feb-15 09:30N 51°28' E 000°20'0 0.0
2018-Feb-15 09:01N 51°28' E 000°20'0 0.0
2018-Feb-15 08:30N 51°28' E 000°20'0 0.0
2018-Feb-15 08:00N 51°28' E 000°20'0 0.0
2018-Feb-15 07:30N 51°28' E 000°20'0 0.0
2018-Feb-15 07:00N 51°28' E 000°20'0 0.0
2018-Feb-15 06:30N 51°28' E 000°20'0 0.0
2018-Feb-15 06:00N 51°28' E 000°20'0 0.0
2018-Feb-15 05:31N 51°28' E 000°20'0 0.0
2018-Feb-15 05:00N 51°28' E 000°20'0 0.1
2018-Feb-15 04:31N 51°28' E 000°20'0 0.0
2018-Feb-15 04:00N 51°28' E 000°20'0 0.0
2018-Feb-15 03:31N 51°28' E 000°20'0 0.0
2018-Feb-15 03:01N 51°28' E 000°20'0 0.0
2018-Feb-15 02:31N 51°28' E 000°20'0 0.0
2018-Feb-15 02:00N 51°28' E 000°20'0 0.0
2018-Feb-15 01:30N 51°28' E 000°20'0 0.0
2018-Feb-15 01:00N 51°28' E 000°20'0 0.0
2018-Feb-15 00:30N 51°28' E 000°20'0 0.0
2018-Feb-15 00:01N 51°28' E 000°20'0 0.0
2018-Feb-14 23:30N 51°28' E 000°20'0 0.0
2018-Feb-14 23:00N 51°28' E 000°20'0 0.0
2018-Feb-14 22:31N 51°28' E 000°20'0 0.0
2018-Feb-14 22:01N 51°28' E 000°20'0 0.0
2018-Feb-14 21:31N 51°28' E 000°20'0 0.0
2018-Feb-14 21:00N 51°28' E 000°20'0 0.0
2018-Feb-14 20:31N 51°28' E 000°20'0 0.0
2018-Feb-14 20:01N 51°28' E 000°20'0 0.0
2018-Feb-14 19:30N 51°28' E 000°20'0 0.0
2018-Feb-14 19:00N 51°28' E 000°20'0 0.0
2018-Feb-14 18:30N 51°28' E 000°20'0 0.0
2018-Feb-14 18:01N 51°28' E 000°20'0 0.0
2018-Feb-14 17:31N 51°28' E 000°20'0 0.1
2018-Feb-14 17:00N 51°28' E 000°20'0 0.2
2018-Feb-14 16:30N 51°28' E 000°20'0 0.0
2018-Feb-14 16:00N 51°28' E 000°20'0 0.0
2018-Feb-14 15:31N 51°28' E 000°20'0 0.0
2018-Feb-14 15:01N 51°28' E 000°20'0 0.0
2018-Feb-14 14:31N 51°28' E 000°20'0 0.0
2018-Feb-14 14:00N 51°28' E 000°20'0 0.0
2018-Feb-14 13:31N 51°28' E 000°20'0 0.0
2018-Feb-14 13:00N 51°28' E 000°20'0 0.0
2018-Feb-14 12:31N 51°28' E 000°20'0 0.3
2018-Feb-14 12:00N 51°28' E 000°20'1 2.7
2018-Feb-14 11:30N 51°27' E 000°22'4 8.2
2018-Feb-14 11:00N 51°29' E 000°27'3 5.9
2018-Feb-14 10:30N 51°30' E 000°32'3 6.8
2018-Feb-14 10:00N 51°30' E 000°37'3 6.9
2018-Feb-14 09:30N 51°30' E 000°43'4 7.7
2018-Feb-14 09:00N 51°30' E 000°49'4 8.7
2018-Feb-14 08:30N 51°30' E 000°56'1 2.4
2018-Feb-14 07:55N 51°31' E 000°58'0 0.0
2018-Feb-14 05:49N 51°31' E 000°58'0 0.1
2018-Feb-14 05:28N 51°31' E 000°58'0 0.1
2018-Feb-14 04:56N 51°31' E 000°58'1 3.4
2018-Feb-14 04:30N 51°29' E 000°58'510.7
2018-Feb-14 04:00N 51°30' E 001°06'510.7
2018-Feb-14 03:30N 51°29' E 001°15'510.5
2018-Feb-14 03:00N 51°29' E 001°23'510.9
2018-Feb-14 02:30N 51°29' E 001°32'611.3
2018-Feb-14 02:00N 51°30' E 001°41'611.5
2018-Feb-14 01:30N 51°29' E 001°50'611.7
2018-Feb-14 01:00N 51°27' E 001°59'611.7
2018-Feb-14 00:30N 51°24' E 002°07'611.4
2018-Feb-14 00:00N 51°22' E 002°15'5 9.6
2018-Feb-13 23:30N 51°22' E 002°23'5 9.9
2018-Feb-13 22:59N 51°23' E 002°31'510.8
2018-Feb-13 22:30N 51°23' E 002°39'611.1
2018-Feb-13 22:01N 51°22' E 002°48'611.7
2018-Feb-13 21:31N 51°22' E 002°58'611.9
2018-Feb-13 21:01N 51°23' E 003°07'612.2
2018-Feb-13 20:31N 51°24' E 003°17'612.2
2018-Feb-13 20:00N 51°25' E 003°26'611.6
2018-Feb-13 19:30N 51°26' E 003°35'5 9.4
2018-Feb-13 18:59N 51°24' E 003°43'612.7
2018-Feb-13 18:30N 51°21' E 003°51'713.1
2018-Feb-13 18:00N 51°26' E 003°58'510.9
2018-Feb-13 17:30N 51°22' E 004°05'510.4
2018-Feb-13 17:00N 51°22' E 004°13'612.7
2018-Feb-13 16:30N 51°17' E 004°20'0 0.6
2018-Feb-13 16:00N 51°17' E 004°20'0 0.0
2018-Feb-13 15:30N 51°17' E 004°20'2 3.8
2018-Feb-13 15:00N 51°15' E 004°22'1 1.6
2018-Feb-13 14:28N 51°15' E 004°23'0 0.0
2018-Feb-13 13:58N 51°15' E 004°23'0 0.0
2018-Feb-13 13:28N 51°15' E 004°23'0 0.0
2018-Feb-13 12:58N 51°15' E 004°23'0 0.0
2018-Feb-13 12:28N 51°15' E 004°23'0 0.0
2018-Feb-13 11:58N 51°15' E 004°23'0 0.0
2018-Feb-13 11:25N 51°15' E 004°23'0 0.0
2018-Feb-13 10:58N 51°15' E 004°23'0 0.0
2018-Feb-13 10:28N 51°15' E 004°23'0 0.0
2018-Feb-13 09:58N 51°15' E 004°23'0 0.0
2018-Feb-13 09:28N 51°15' E 004°23'0 0.0
2018-Feb-13 08:58N 51°15' E 004°23'0 0.0
2018-Feb-13 08:28N 51°15' E 004°23'0 0.0
2018-Feb-13 07:58N 51°15' E 004°23'0 0.0
2018-Feb-13 07:28N 51°15' E 004°23'0 0.0
2018-Feb-13 06:58N 51°15' E 004°23'0 0.0
2018-Feb-13 06:28N 51°15' E 004°23'0 0.0
2018-Feb-13 05:58N 51°15' E 004°23'0 0.0
2018-Feb-13 05:28N 51°15' E 004°23'0 0.0
2018-Feb-13 04:58N 51°15' E 004°23'0 0.0
2018-Feb-13 04:28N 51°15' E 004°23'0 0.0
2018-Feb-13 03:58N 51°15' E 004°23'0 0.0
2018-Feb-13 03:28N 51°15' E 004°23'0 0.0
2018-Feb-13 02:58N 51°15' E 004°23'0 0.0
2018-Feb-13 02:28N 51°15' E 004°23'0 0.0
2018-Feb-13 01:58N 51°15' E 004°23'0 0.0
2018-Feb-13 01:28N 51°15' E 004°23'0 0.0
2018-Feb-13 00:58N 51°15' E 004°23'0 0.0
2018-Feb-13 00:28N 51°15' E 004°23'0 0.0
2018-Feb-12 23:58N 51°15' E 004°23'0 0.0
2018-Feb-12 23:28N 51°15' E 004°23'0 0.0
2018-Feb-12 22:58N 51°15' E 004°23'0 0.0
2018-Feb-12 22:28N 51°15' E 004°23'0 0.0
2018-Feb-12 21:58N 51°15' E 004°23'0 0.0
2018-Feb-12 21:25N 51°15' E 004°23'0 0.0
2018-Feb-12 20:58N 51°15' E 004°23'0 0.0
2018-Feb-12 20:28N 51°15' E 004°23'0 0.0
2018-Feb-12 19:58N 51°15' E 004°23'0 0.0
2018-Feb-12 19:28N 51°15' E 004°23'0 0.0
2018-Feb-12 18:58N 51°15' E 004°23'0 0.0
2018-Feb-12 18:28N 51°15' E 004°23'0 0.0
2018-Feb-12 17:58N 51°15' E 004°23'0 0.0
2018-Feb-12 17:28N 51°15' E 004°23'0 0.0
2018-Feb-12 16:58N 51°15' E 004°23'0 0.0
2018-Feb-12 16:28N 51°15' E 004°23'0 0.0
2018-Feb-12 15:58N 51°15' E 004°23'0 0.0
2018-Feb-12 15:16N 51°15' E 004°23'0 0.0
2018-Feb-12 14:58N 51°15' E 004°23'0 0.0
2018-Feb-12 14:28N 51°15' E 004°23'1 1.4
2018-Feb-12 14:00N 51°15' E 004°24'0 0.9
2018-Feb-12 13:29N 51°15' E 004°25'0 0.0
2018-Feb-12 12:59N 51°15' E 004°25'0 0.0
2018-Feb-12 12:29N 51°15' E 004°25'0 0.0
2018-Feb-12 11:59N 51°15' E 004°25'0 0.0
2018-Feb-12 11:29N 51°15' E 004°25'0 0.0
2018-Feb-12 10:59N 51°15' E 004°25'0 0.0
2018-Feb-12 10:26N 51°15' E 004°25'0 0.0
2018-Feb-12 09:56N 51°15' E 004°25'0 0.0
2018-Feb-12 09:26N 51°15' E 004°25'0 0.0
2018-Feb-12 08:59N 51°15' E 004°25'0 0.0
2018-Feb-12 08:29N 51°15' E 004°25'0 0.0
2018-Feb-12 07:59N 51°15' E 004°25'0 0.0
2018-Feb-12 07:29N 51°15' E 004°25'0 0.0
2018-Feb-12 06:59N 51°15' E 004°25'0 0.0
2018-Feb-12 06:29N 51°15' E 004°25'0 0.0
2018-Feb-12 05:59N 51°15' E 004°25'0 0.0
2018-Feb-12 05:29N 51°15' E 004°25'0 0.0
2018-Feb-12 04:59N 51°15' E 004°25'0 0.0
2018-Feb-12 04:29N 51°15' E 004°25'0 0.0
2018-Feb-12 03:59N 51°15' E 004°25'0 0.0
2018-Feb-12 03:29N 51°15' E 004°25'0 0.0
2018-Feb-12 02:59N 51°15' E 004°25'0 0.0
2018-Feb-12 02:29N 51°15' E 004°25'0 0.0
2018-Feb-12 01:59N 51°15' E 004°25'0 0.0
2018-Feb-12 01:29N 51°15' E 004°25'0 0.0
2018-Feb-12 00:59N 51°15' E 004°25'0 0.0
2018-Feb-12 00:29N 51°15' E 004°25'0 0.0
2018-Feb-11 23:59N 51°15' E 004°25'0 0.0
2018-Feb-11 23:29N 51°15' E 004°25'0 0.0
2018-Feb-11 22:56N 51°15' E 004°25'0 0.0
2018-Feb-11 22:29N 51°15' E 004°25'0 0.0
2018-Feb-11 21:59N 51°15' E 004°25'0 0.0
2018-Feb-11 21:29N 51°15' E 004°25'0 0.0
2018-Feb-11 20:59N 51°15' E 004°25'0 0.0
2018-Feb-11 20:26N 51°15' E 004°25'0 0.0
2018-Feb-11 19:59N 51°15' E 004°25'  
Track history (hours):
 
Tides and Currents Weather Stations Pressure Air Temp Water Temp Dewpoint Dewpoint Depression Visibility Wind Speed Wind Dir Waves Ship Positions

Hunzedijk

Last reported at 2018-Feb-21 19:32 UTC. Time now 2018-Feb-22 19:18 UTC.
Position N 35°60' W 005°02'.

Length 90 m; draft 6.5 m.

Type: Cargo ship. MMSI: 246765000.

Date/timePositionNaut miles runAvg speedWind from/ knotsBaromVisibWave heightAir tempDewpointWater temp
2018-Feb-21 19:32N 35°60' W 005°02'1 9.9
2018-Feb-21 19:28N 35°60' W 005°03'813.1
2018-Feb-21 18:53N 35°59' W 005°13'512.8
2018-Feb-21 18:30N 35°58' W 005°18'612.9
2018-Feb-21 18:00N 35°57' W 005°26'21510.2
2018-Feb-20 20:55N 37°07' W 009°39'510.3
2018-Feb-20 20:27N 37°12' W 009°41'510.4
2018-Feb-20 19:57N 37°17' W 009°42'510.5
2018-Feb-20 19:26N 37°22' W 009°44'510.3
2018-Feb-20 18:59N 37°26' W 009°46'510.8
2018-Feb-20 18:30N 37°31' W 009°47'611.0
2018-Feb-20 18:00N 37°37' W 009°49'611.1
2018-Feb-20 17:30N 37°42' W 009°50'510.9
2018-Feb-20 17:00N 37°47' W 009°52'510.9
2018-Feb-20 16:30N 37°53' W 009°54'611.0
2018-Feb-20 16:00N 37°58' W 009°55'611.3
2018-Feb-20 15:30N 38°03' W 009°57'611.3
2018-Feb-20 15:00N 38°09' W 009°58'611.2
2018-Feb-20 14:30N 38°15' W 009°59'611.2
2018-Feb-20 14:00N 38°20' W 010°01'611.1
2018-Feb-20 13:30N 38°25' W 010°03'611.3
2018-Feb-20 13:01N 38°31' W 010°05'811.1
2018-Feb-20 12:20N 38°38' W 010°07'410.7
2018-Feb-20 12:00N 38°42' W 010°07'510.6
2018-Feb-20 11:30N 38°47' W 010°08'611.0
2018-Feb-20 10:59N 38°53' W 010°08'511.1
2018-Feb-20 10:31N 38°58' W 010°08'611.0
2018-Feb-20 10:00N 39°03' W 010°08'611.1
2018-Feb-20 09:29N 39°09' W 010°08'510.8
2018-Feb-20 09:00N 39°14' W 010°08'  
2018-Feb-17 06:40N 49°51' W 003°20'2 7.5
2018-Feb-17 06:25N 49°52' W 003°18'11 8.4
2018-Feb-17 05:09N 49°58' W 003°03'1 9.3
2018-Feb-17 04:59N 49°58' W 003°01'5 9.8
2018-Feb-17 04:31N 50°00' W 002°54'610.7
2018-Feb-17 03:58N 50°02' W 002°46'4312.3
2018-Feb-17 00:30N 50°14' W 001°42'54 8.1
2018-Feb-16 17:54N 50°28' W 000°21'711.1
2018-Feb-16 17:15N 50°30' W 000°10'311.4
2018-Feb-16 17:00N 50°31' W 000°06'612.1
2018-Feb-16 16:30N 50°33' E 000°04'611.6
2018-Feb-16 15:59N 50°34' E 000°13'611.4
2018-Feb-16 15:30N 50°36' E 000°21'611.2
2018-Feb-16 15:00N 50°37' E 000°30'510.7
2018-Feb-16 14:30N 50°39' E 000°38'510.3
2018-Feb-16 14:00N 50°42' E 000°44'5 9.9
2018-Feb-16 13:30N 50°45' E 000°50'5 9.3
2018-Feb-16 12:59N 50°48' E 000°56'14 8.5
2018-Feb-16 11:22N 50°57' E 001°13'3 8.4
2018-Feb-16 11:00N 50°59' E 001°17'5 8.9
2018-Feb-16 10:28N 51°02' E 001°23'510.3
2018-Feb-16 09:59N 51°05' E 001°29'611.8
2018-Feb-16 09:30N 51°09' E 001°36'611.9
2018-Feb-16 09:00N 51°15' E 001°37'612.3
2018-Feb-16 08:30N 51°21' E 001°35'510.4
2018-Feb-16 08:00N 51°24' E 001°30'2 3.2
2018-Feb-16 07:30N 51°25' E 001°27'0 0.1
2018-Feb-16 07:00N 51°25' E 001°28'0 0.0
2018-Feb-16 06:30N 51°25' E 001°28'0 0.0
2018-Feb-16 06:00N 51°25' E 001°28'0 0.0
2018-Feb-16 05:30N 51°25' E 001°28'0 0.0
2018-Feb-16 05:00N 51°25' E 001°28'1 2.5
2018-Feb-16 04:30N 51°26' E 001°29'611.1
2018-Feb-16 04:00N 51°28' E 001°21'613.0
2018-Feb-16 03:30N 51°29' E 001°11'612.5
2018-Feb-16 03:00N 51°29' E 001°01'612.7
2018-Feb-16 02:30N 51°29' E 000°51'612.4
2018-Feb-16 02:00N 51°30' E 000°41'611.5
2018-Feb-16 01:31N 51°30' E 000°32'5 9.5
2018-Feb-16 01:00N 51°27' E 000°26'4 7.6
2018-Feb-16 00:30N 51°28' E 000°20'0 0.2
2018-Feb-16 00:00N 51°28' E 000°20'0 0.0
2018-Feb-15 23:31N 51°28' E 000°20'0 0.0
2018-Feb-15 23:00N 51°28' E 000°20'0 0.0
2018-Feb-15 22:31N 51°28' E 000°20'0 0.0
2018-Feb-15 22:00N 51°28' E 000°20'0 0.0
2018-Feb-15 21:31N 51°28' E 000°20'0 0.0
2018-Feb-15 21:00N 51°28' E 000°20'0 0.0
2018-Feb-15 20:30N 51°28' E 000°20'0 0.0
2018-Feb-15 20:01N 51°28' E 000°20'0 0.0
2018-Feb-15 19:30N 51°28' E 000°20'0 0.0
2018-Feb-15 19:01N 51°28' E 000°20'0 0.0
2018-Feb-15 18:31N 51°28' E 000°20'0 0.0
2018-Feb-15 18:01N 51°28' E 000°20'0 0.0
2018-Feb-15 17:30N 51°28' E 000°20'0 0.0
2018-Feb-15 17:00N 51°28' E 000°20'0 0.0
2018-Feb-15 16:30N 51°28' E 000°20'0 0.0
2018-Feb-15 16:01N 51°28' E 000°20'0 0.0
2018-Feb-15 15:31N 51°28' E 000°20'0 0.0
2018-Feb-15 15:01N 51°28' E 000°20'0 0.0
2018-Feb-15 14:31N 51°28' E 000°20'0 0.0
2018-Feb-15 14:00N 51°28' E 000°20'0 0.0
2018-Feb-15 13:31N 51°28' E 000°20'0 0.0
2018-Feb-15 13:00N 51°28' E 000°20'0 0.0
2018-Feb-15 12:30N 51°28' E 000°20'0 0.0
2018-Feb-15 12:00N 51°28' E 000°20'0 0.0
2018-Feb-15 11:30N 51°28' E 000°20'0 0.0
2018-Feb-15 11:00N 51°28' E 000°20'0 0.0
2018-Feb-15 10:31N 51°28' E 000°20'0 0.1
2018-Feb-15 10:01N 51°28' E 000°20'0 0.1
2018-Feb-15 09:30N 51°28' E 000°20'0 0.0
2018-Feb-15 09:01N 51°28' E 000°20'0 0.0
2018-Feb-15 08:30N 51°28' E 000°20'0 0.0
2018-Feb-15 08:00N 51°28' E 000°20'0 0.0
2018-Feb-15 07:30N 51°28' E 000°20'0 0.0
2018-Feb-15 07:00N 51°28' E 000°20'0 0.0
2018-Feb-15 06:30N 51°28' E 000°20'0 0.0
2018-Feb-15 06:00N 51°28' E 000°20'0 0.0
2018-Feb-15 05:31N 51°28' E 000°20'0 0.0
2018-Feb-15 05:00N 51°28' E 000°20'0 0.1
2018-Feb-15 04:31N 51°28' E 000°20'0 0.0
2018-Feb-15 04:00N 51°28' E 000°20'0 0.0
2018-Feb-15 03:31N 51°28' E 000°20'0 0.0
2018-Feb-15 03:01N 51°28' E 000°20'0 0.0
2018-Feb-15 02:31N 51°28' E 000°20'0 0.0
2018-Feb-15 02:00N 51°28' E 000°20'0 0.0
2018-Feb-15 01:30N 51°28' E 000°20'0 0.0
2018-Feb-15 01:00N 51°28' E 000°20'0 0.0
2018-Feb-15 00:30N 51°28' E 000°20'0 0.0
2018-Feb-15 00:01N 51°28' E 000°20'0 0.0
2018-Feb-14 23:30N 51°28' E 000°20'0 0.0
2018-Feb-14 23:00N 51°28' E 000°20'0 0.0
2018-Feb-14 22:31N 51°28' E 000°20'0 0.0
2018-Feb-14 22:01N 51°28' E 000°20'0 0.0
2018-Feb-14 21:31N 51°28' E 000°20'0 0.0
2018-Feb-14 21:00N 51°28' E 000°20'0 0.0
2018-Feb-14 20:31N 51°28' E 000°20'0 0.0
2018-Feb-14 20:01N 51°28' E 000°20'0 0.0
2018-Feb-14 19:30N 51°28' E 000°20'0 0.0
2018-Feb-14 19:00N 51°28' E 000°20'0 0.0
2018-Feb-14 18:30N 51°28' E 000°20'0 0.0
2018-Feb-14 18:01N 51°28' E 000°20'0 0.0
2018-Feb-14 17:31N 51°28' E 000°20'0 0.1
2018-Feb-14 17:00N 51°28' E 000°20'0 0.2
2018-Feb-14 16:30N 51°28' E 000°20'0 0.0
2018-Feb-14 16:00N 51°28' E 000°20'0 0.0
2018-Feb-14 15:31N 51°28' E 000°20'0 0.0
2018-Feb-14 15:01N 51°28' E 000°20'0 0.0
2018-Feb-14 14:31N 51°28' E 000°20'0 0.0
2018-Feb-14 14:00N 51°28' E 000°20'0 0.0
2018-Feb-14 13:31N 51°28' E 000°20'0 0.0
2018-Feb-14 13:00N 51°28' E 000°20'0 0.0
2018-Feb-14 12:31N 51°28' E 000°20'0 0.3
2018-Feb-14 12:00N 51°28' E 000°20'1 2.7
2018-Feb-14 11:30N 51°27' E 000°22'4 8.2
2018-Feb-14 11:00N 51°29' E 000°27'3 5.9
2018-Feb-14 10:30N 51°30' E 000°32'3 6.8
2018-Feb-14 10:00N 51°30' E 000°37'3 6.9
2018-Feb-14 09:30N 51°30' E 000°43'4 7.7
2018-Feb-14 09:00N 51°30' E 000°49'4 8.7
2018-Feb-14 08:30N 51°30' E 000°56'1 2.4
2018-Feb-14 07:55N 51°31' E 000°58'0 0.0
2018-Feb-14 05:49N 51°31' E 000°58'0 0.1
2018-Feb-14 05:28N 51°31' E 000°58'0 0.1
2018-Feb-14 04:56N 51°31' E 000°58'1 3.4
2018-Feb-14 04:30N 51°29' E 000°58'510.7
2018-Feb-14 04:00N 51°30' E 001°06'510.7
2018-Feb-14 03:30N 51°29' E 001°15'510.5
2018-Feb-14 03:00N 51°29' E 001°23'510.9
2018-Feb-14 02:30N 51°29' E 001°32'611.3
2018-Feb-14 02:00N 51°30' E 001°41'611.5
2018-Feb-14 01:30N 51°29' E 001°50'611.7
2018-Feb-14 01:00N 51°27' E 001°59'611.7
2018-Feb-14 00:30N 51°24' E 002°07'611.4
2018-Feb-14 00:00N 51°22' E 002°15'5 9.6
2018-Feb-13 23:30N 51°22' E 002°23'5 9.9
2018-Feb-13 22:59N 51°23' E 002°31'510.8
2018-Feb-13 22:30N 51°23' E 002°39'611.1
2018-Feb-13 22:01N 51°22' E 002°48'611.7
2018-Feb-13 21:31N 51°22' E 002°58'611.9
2018-Feb-13 21:01N 51°23' E 003°07'612.2
2018-Feb-13 20:31N 51°24' E 003°17'612.2
2018-Feb-13 20:00N 51°25' E 003°26'611.6
2018-Feb-13 19:30N 51°26' E 003°35'5 9.4
2018-Feb-13 18:59N 51°24' E 003°43'612.7
2018-Feb-13 18:30N 51°21' E 003°51'713.1
2018-Feb-13 18:00N 51°26' E 003°58'510.9
2018-Feb-13 17:30N 51°22' E 004°05'510.4
2018-Feb-13 17:00N 51°22' E 004°13'612.7
2018-Feb-13 16:30N 51°17' E 004°20'0 0.6
2018-Feb-13 16:00N 51°17' E 004°20'0 0.0
2018-Feb-13 15:30N 51°17' E 004°20'2 3.8
2018-Feb-13 15:00N 51°15' E 004°22'1 1.6
2018-Feb-13 14:28N 51°15' E 004°23'0 0.0
2018-Feb-13 13:58N 51°15' E 004°23'0 0.0
2018-Feb-13 13:28N 51°15' E 004°23'0 0.0
2018-Feb-13 12:58N 51°15' E 004°23'0 0.0
2018-Feb-13 12:28N 51°15' E 004°23'0 0.0
2018-Feb-13 11:58N 51°15' E 004°23'0 0.0
2018-Feb-13 11:25N 51°15' E 004°23'0 0.0
2018-Feb-13 10:58N 51°15' E 004°23'0 0.0
2018-Feb-13 10:28N 51°15' E 004°23'0 0.0
2018-Feb-13 09:58N 51°15' E 004°23'0 0.0
2018-Feb-13 09:28N 51°15' E 004°23'0 0.0
2018-Feb-13 08:58N 51°15' E 004°23'0 0.0
2018-Feb-13 08:28N 51°15' E 004°23'0 0.0
2018-Feb-13 07:58N 51°15' E 004°23'0 0.0
2018-Feb-13 07:28N 51°15' E 004°23'0 0.0
2018-Feb-13 06:58N 51°15' E 004°23'0 0.0
2018-Feb-13 06:28N 51°15' E 004°23'0 0.0
2018-Feb-13 05:58N 51°15' E 004°23'0 0.0
2018-Feb-13 05:28N 51°15' E 004°23'0 0.0
2018-Feb-13 04:58N 51°15' E 004°23'0 0.0
2018-Feb-13 04:28N 51°15' E 004°23'0 0.0
2018-Feb-13 03:58N 51°15' E 004°23'0 0.0
2018-Feb-13 03:28N 51°15' E 004°23'0 0.0
2018-Feb-13 02:58N 51°15' E 004°23'0 0.0
2018-Feb-13 02:28N 51°15' E 004°23'0 0.0
2018-Feb-13 01:58N 51°15' E 004°23'0 0.0
2018-Feb-13 01:28N 51°15' E 004°23'0 0.0
2018-Feb-13 00:58N 51°15' E 004°23'0 0.0
2018-Feb-13 00:28N 51°15' E 004°23'0 0.0
2018-Feb-12 23:58N 51°15' E 004°23'0 0.0
2018-Feb-12 23:28N 51°15' E 004°23'0 0.0
2018-Feb-12 22:58N 51°15' E 004°23'0 0.0
2018-Feb-12 22:28N 51°15' E 004°23'0 0.0
2018-Feb-12 21:58N 51°15' E 004°23'0 0.0
2018-Feb-12 21:25N 51°15' E 004°23'0 0.0
2018-Feb-12 20:58N 51°15' E 004°23'0 0.0
2018-Feb-12 20:28N 51°15' E 004°23'0 0.0
2018-Feb-12 19:58N 51°15' E 004°23'0 0.0
2018-Feb-12 19:28N 51°15' E 004°23'0 0.0
2018-Feb-12 18:58N 51°15' E 004°23'0 0.0
2018-Feb-12 18:28N 51°15' E 004°23'0 0.0
2018-Feb-12 17:58N 51°15' E 004°23'0 0.0
2018-Feb-12 17:28N 51°15' E 004°23'0 0.0
2018-Feb-12 16:58N 51°15' E 004°23'0 0.0
2018-Feb-12 16:28N 51°15' E 004°23'0 0.0
2018-Feb-12 15:58N 51°15' E 004°23'0 0.0
2018-Feb-12 15:16N 51°15' E 004°23'0 0.0
2018-Feb-12 14:58N 51°15' E 004°23'0 0.0
2018-Feb-12 14:28N 51°15' E 004°23'1 1.4
2018-Feb-12 14:00N 51°15' E 004°24'0 0.9
2018-Feb-12 13:29N 51°15' E 004°25'0 0.0
2018-Feb-12 12:59N 51°15' E 004°25'0 0.0
2018-Feb-12 12:29N 51°15' E 004°25'0 0.0
2018-Feb-12 11:59N 51°15' E 004°25'0 0.0
2018-Feb-12 11:29N 51°15' E 004°25'0 0.0
2018-Feb-12 10:59N 51°15' E 004°25'0 0.0
2018-Feb-12 10:26N 51°15' E 004°25'0 0.0
2018-Feb-12 09:56N 51°15' E 004°25'0 0.0
2018-Feb-12 09:26N 51°15' E 004°25'0 0.0
2018-Feb-12 08:59N 51°15' E 004°25'0 0.0
2018-Feb-12 08:29N 51°15' E 004°25'0 0.0
2018-Feb-12 07:59N 51°15' E 004°25'0 0.0
2018-Feb-12 07:29N 51°15' E 004°25'0 0.0
2018-Feb-12 06:59N 51°15' E 004°25'0 0.0
2018-Feb-12 06:29N 51°15' E 004°25'0 0.0
2018-Feb-12 05:59N 51°15' E 004°25'0 0.0
2018-Feb-12 05:29N 51°15' E 004°25'0 0.0
2018-Feb-12 04:59N 51°15' E 004°25'0 0.0
2018-Feb-12 04:29N 51°15' E 004°25'0 0.0
2018-Feb-12 03:59N 51°15' E 004°25'0 0.0
2018-Feb-12 03:29N 51°15' E 004°25'0 0.0
2018-Feb-12 02:59N 51°15' E 004°25'0 0.0
2018-Feb-12 02:29N 51°15' E 004°25'0 0.0
2018-Feb-12 01:59N 51°15' E 004°25'0 0.0
2018-Feb-12 01:29N 51°15' E 004°25'0 0.0
2018-Feb-12 00:59N 51°15' E 004°25'0 0.0
2018-Feb-12 00:29N 51°15' E 004°25'0 0.0
2018-Feb-11 23:59N 51°15' E 004°25'0 0.0
2018-Feb-11 23:29N 51°15' E 004°25'0 0.0
2018-Feb-11 22:56N 51°15' E 004°25'0 0.0
2018-Feb-11 22:29N 51°15' E 004°25'0 0.0
2018-Feb-11 21:59N 51°15' E 004°25'0 0.0
2018-Feb-11 21:29N 51°15' E 004°25'0 0.0
2018-Feb-11 20:59N 51°15' E 004°25'0 0.0
2018-Feb-11 20:26N 51°15' E 004°25'0 0.0
2018-Feb-11 19:59N 51°15' E 004°25'  

Dump ship's entire track history